首页
METAR-TAF:

METAR-TAF

机场 :

亞庫塔特, 阿拉斯加州, 美国

纬度: 59-31N, 经度: 139-40W, 海拔: 11米

当前天气观测

该预报发布于35分钟前的04:16 UTC
静风
温度 -4°C
湿度 93%
气压 1018 hPa
能見度: 11.3公里
少量云层高于1500英尺
多云层高于2200英尺
阴天层高于3400英尺
小雪

METAR: PAYA 170416Z AUTO 00000KT 7SM -SN FEW015 BKN022 OVC034 M04/M05 A3006 RMK AO2 P0001 T10391050 TSNO $

时间: 19:51 (04:51 UTC)

预报

该预报发布于5小时和17分钟前的23:34 UTC
预报有效从17日的 00点(UTC)到 17日的 24点(UTC)
风速4节,风向
能見度: 10公里
多云层高于2000英尺
阴天层高于8000英尺
附近有阵雨
短暂存在
从 17日的 00点(UTC)到 17日的 04点(UTC)
能見度: 3.2公里
多云层高于1300英尺
阴天层高于2000英尺
小雪, 轻雾
从 17日的 1200点(UTC)
风速4节,风向
能見度: 10公里
阴天层高于1500英尺
附近有阵雨
从 17日的 1800点(UTC)
风速5节,风向
能見度: 3.2公里
阴天层高于700英尺
小雪, 轻雾

TAF: PAYA 162334Z 1700/1724 08004KT P6SM VCSH BKN020 OVC080 TEMPO 1700/1704 2SM -SN BR BKN013 OVC020 FM171200 08004KT P6SM VCSH OVC015 FM171800 08005KT 2SM -SN BR OVC007 AMD LTD TO CLD VIS AND WIND

超过4000个机场的气象观测和天气预报(METAR&TAF报告)。

可查询的气象台以黄色和红色小点在地图上表示。

将鼠标移到小点上方,可查看气象台名称。

然后点击查看天气观测和预报。

如需切换地图:点击带黑十字的绿色按钮放大地图;点击带横线的绿色按钮缩小地图;或者点击绿色箭头查看邻近地区的地图。


METAR-TAF: